Time;durP1;ratioP1;P1;durP2;ratioP2;P2;SDS_P1;SDS_P2;PMS_P1;PMS_P2;Temp;Humidity;BMP_temperature;BMP_pressure;BME280_temperature;BME280_humidity;BME280_pressure;Samples;Min_cycle;Max_cycle;Signal;HPM_P1;HPM_P2
2023/03/15 00:01:13;;;;;;;3.10;1.20;;;;;;;8.58;63.18;101263.69;5068464;28;20099;-72
2023/03/15 00:03:39;;;;;;;2.57;1.10;;;;;;;9.36;61.91;101264.81;5068577;28;20036;-72
2023/03/15 00:06:04;;;;;;;6.73;1.90;;;;;;;9.26;60.25;101269.16;5067673;28;20024;-72
2023/03/15 00:08:33;;;;;;;8.83;1.90;;;;;;;8.68;62.55;101269.81;5066170;28;20528;-72
2023/03/15 00:10:59;;;;;;;7.77;1.63;;;;;;;9.32;61.17;101263.94;5067329;28;20503;-72
2023/03/15 00:13:25;;;;;;;5.70;1.33;;;;;;;9.83;60.16;101261.38;5069923;28;20107;-71
2023/03/15 00:15:54;;;;;;;7.00;1.23;;;;;;;9.99;58.72;101256.16;5067750;28;20154;-72
2023/03/15 00:18:20;;;;;;;4.60;1.20;;;;;;;10.07;59.22;101258.75;5069557;28;20055;-71
2023/03/15 00:20:46;;;;;;;3.40;1.10;;;;;;;10.27;58.57;101261.34;5069062;28;20477;-72
2023/03/15 00:23:12;;;;;;;7.73;1.40;;;;;;;10.09;58.53;101270.09;5065655;28;20050;-71
2023/03/15 00:25:37;;;;;;;4.77;1.20;;;;;;;9.56;61.20;101277.91;5068774;28;20052;-72
2023/03/15 00:28:03;;;;;;;5.53;1.10;;;;;;;9.65;61.46;101280.50;5067773;28;20024;-71
2023/03/15 00:30:28;;;;;;;4.73;1.43;;;;;;;10.45;58.50;101276.16;5066719;28;20016;-71
2023/03/15 00:32:54;;;;;;;3.70;1.30;;;;;;;9.89;59.10;101281.41;5066023;28;20024;-71
2023/03/15 00:35:20;;;;;;;10.30;1.20;;;;;;;10.41;57.96;101280.50;5068180;28;20439;-71
2023/03/15 00:37:46;;;;;;;4.43;1.20;;;;;;;9.82;59.26;101300.53;5067720;28;20085;-70
2023/03/15 00:40:13;;;;;;;6.17;1.13;;;;;;;9.26;60.76;101295.25;5068591;28;20029;-71
2023/03/15 00:42:39;;;;;;;3.90;1.43;;;;;;;10.29;57.32;101291.81;5066747;28;20082;-70
2023/03/15 00:45:05;;;;;;;8.53;1.50;;;;;;;10.44;57.19;101288.34;5065002;28;20575;-71
2023/03/15 00:47:34;;;;;;;4.90;1.30;;;;;;;10.50;56.33;101300.53;5066455;28;20086;-70
2023/03/15 00:49:59;;;;;;;4.33;1.30;;;;;;;9.83;58.99;101307.50;5067563;28;20047;-72
2023/03/15 00:52:25;;;;;;;6.30;0.87;;;;;;;10.44;57.11;101301.41;5065370;28;20500;-71
2023/03/15 00:54:52;;;;;;;5.63;1.00;;;;;;;10.38;57.18;101305.78;5066972;28;20296;-71
2023/03/15 00:57:17;;;;;;;6.20;1.47;;;;;;;10.74;55.86;101303.94;5067005;28;20063;-70
2023/03/15 00:59:43;;;;;;;5.97;1.40;;;;;;;10.80;54.29;101309.19;5067846;28;20032;-71
2023/03/15 01:02:09;;;;;;;3.00;1.40;;;;;;;10.04;55.57;101317.09;5068663;28;20028;-70
2023/03/15 01:04:34;;;;;;;3.50;1.07;;;;;;;10.25;57.09;101300.53;5065996;28;20033;-71
2023/03/15 01:07:00;;;;;;;7.87;2.47;;;;;;;10.23;56.74;101307.50;5066447;28;20040;-71
2023/03/15 01:09:25;;;;;;;3.10;1.10;;;;;;;10.62;55.32;101304.84;5067840;28;20028;-71
2023/03/15 01:11:50;;;;;;;2.73;1.20;;;;;;;10.42;54.95;101304.91;5065627;28;20048;-71
2023/03/15 01:14:17;;;;;;;2.53;1.23;;;;;;;11.16;52.92;101313.38;5066931;28;20045;-70
2023/03/15 01:16:43;;;;;;;11.73;1.63;;;;;;;10.80;54.15;101306.56;5065592;28;20098;-69
2023/03/15 01:19:09;;;;;;;5.97;1.47;;;;;;;10.61;54.15;101306.59;5065759;28;20041;-70
2023/03/15 01:21:34;;;;;;;6.53;1.50;;;;;;;10.61;54.41;101309.22;5063612;28;20035;-70
2023/03/15 01:23:59;;;;;;;8.10;1.37;;;;;;;10.68;54.67;101316.16;5067779;28;20032;-70
2023/03/15 01:26:25;;;;;;;1.60;1.20;;;;;;;10.47;55.14;101319.69;5068634;28;20036;-70
2023/03/15 01:28:50;;;;;;;5.13;1.17;;;;;;;10.50;55.43;101331.91;5066800;28;20523;-70
2023/03/15 01:31:22;;;;;;;8.70;1.30;;;;;;;10.20;55.25;101333.63;5067612;28;20403;-70
2023/03/15 01:33:48;;;;;;;5.72;1.10;;;;;;;10.12;55.87;101338.84;5064105;28;20080;-69
2023/03/15 01:36:14;;;;;;;5.77;1.30;;;;;;;10.28;55.74;101339.72;5070290;28;20161;-69
2023/03/15 01:38:39;;;;;;;3.87;1.10;;;;;;;10.23;55.47;101348.44;5070915;28;20043;-69
2023/03/15 01:41:05;;;;;;;4.43;1.43;;;;;;;10.38;55.00;101345.84;5070107;28;20385;-70
2023/03/15 01:43:34;;;;;;;6.80;1.50;;;;;;;10.23;55.04;101351.91;5071320;28;20020;-70
2023/03/15 01:46:18;;;;;;;2.63;1.33;;;;;;;10.25;54.85;101354.53;5052202;28;20071;-69
2023/03/15 01:49:24;;;;;;;4.70;2.50;;;;;;;10.29;54.76;101359.75;5054116;28;20059;-70
2023/03/15 01:52:01;;;;;;;2.00;1.43;;;;;;;10.25;54.56;101360.63;5060703;28;20074;-70
2023/03/15 01:54:32;;;;;;;4.87;1.60;;;;;;;10.25;54.72;101367.59;5069514;28;20085;-69
2023/03/15 01:57:07;;;;;;;4.10;1.67;;;;;;;10.27;55.20;101376.31;5070327;28;20039;-69
2023/03/15 01:59:37;;;;;;;4.63;1.50;;;;;;;10.66;53.84;101370.22;5070220;28;20041;-69
2023/03/15 02:02:04;;;;;;;5.07;1.60;;;;;;;10.30;54.14;101377.19;5070045;28;20123;-69
2023/03/15 02:04:37;;;;;;;7.23;2.63;;;;;;;9.88;56.89;101383.22;5071716;28;20035;-69
2023/03/15 02:07:04;;;;;;;8.17;1.93;;;;;;;10.32;55.76;101372.81;5069083;28;20064;-70
2023/03/15 02:09:58;;;;;;;5.83;1.97;;;;;;;10.26;56.18;101375.44;5069381;28;20387;-69
2023/03/15 02:12:25;;;;;;;7.40;1.87;;;;;;;10.37;55.08;101372.84;5070540;28;20526;-70
2023/03/15 02:14:50;;;;;;;8.70;2.03;;;;;;;10.68;54.52;101371.06;5066959;28;20119;-70
2023/03/15 02:17:20;;;;;;;4.67;1.60;;;;;;;10.53;54.10;101378.94;5069631;28;20151;-69
2023/03/15 02:20:11;;;;;;;9.57;1.80;;;;;;;10.98;53.86;101379.72;5069084;28;20032;-70
2023/03/15 02:23:02;;;;;;;6.77;1.80;;;;;;;10.94;53.62;101379.75;5068433;28;20024;-70
2023/03/15 02:25:36;;;;;;;10.37;1.87;;;;;;;10.65;54.20;101394.59;5070449;28;20042;-70
2023/03/15 02:28:04;;;;;;;5.17;1.77;;;;;;;10.84;53.73;101399.81;5071385;28;20435;-70
2023/03/15 02:30:30;;;;;;;5.07;1.77;;;;;;;10.72;54.03;101403.31;5068112;28;20059;-70
2023/03/15 02:32:58;;;;;;;3.67;1.83;;;;;;;10.89;53.33;101398.03;5071620;28;20043;-70
2023/03/15 02:35:33;;;;;;;5.20;1.57;;;;;;;11.09;53.45;101397.13;5071235;28;20032;-69
2023/03/15 02:37:58;;;;;;;4.70;1.40;;;;;;;10.78;53.98;101400.69;5067720;28;20044;-69
2023/03/15 02:40:26;;;;;;;6.17;1.60;;;;;;;10.72;54.59;101412.91;5071592;28;20115;-69
2023/03/15 02:42:56;;;;;;;7.90;1.80;;;;;;;10.63;53.99;101413.78;5068736;28;20025;-70
2023/03/15 02:45:24;;;;;;;6.70;1.80;;;;;;;10.63;53.49;101411.16;5064014;28;20509;-68
2023/03/15 02:47:50;;;;;;;6.53;1.47;;;;;;;10.51;54.15;101422.53;5065590;28;20060;-69
2023/03/15 02:50:16;;;;;;;9.47;1.63;;;;;;;10.67;53.49;101419.03;5068886;28;20025;-70
2023/03/15 02:52:41;;;;;;;4.83;1.20;;;;;;;10.54;53.44;101414.66;5069071;28;20058;-69
2023/03/15 02:55:07;;;;;;;5.63;1.40;;;;;;;10.57;53.87;101422.50;5068200;28;20396;-70
2023/03/15 02:57:32;;;;;;;5.17;1.73;;;;;;;10.58;53.23;101424.25;5069395;28;20121;-71
2023/03/15 02:59:59;;;;;;;2.90;1.30;;;;;;;10.23;53.89;101437.28;5067762;28;20040;-69
2023/03/15 03:02:25;;;;;;;4.27;1.40;;;;;;;10.42;53.55;101438.19;5069435;28;20123;-69
2023/03/15 03:04:51;;;;;;;3.70;1.70;;;;;;;10.55;53.30;101439.94;5068327;28;20968;-70
2023/03/15 03:07:17;;;;;;;7.20;1.73;;;;;;;10.56;52.96;101446.88;5086866;28;20081;-69
2023/03/15 03:09:43;;;;;;;3.63;1.63;;;;;;;10.42;52.97;101456.50;5070102;28;20127;-70
2023/03/15 03:12:08;;;;;;;4.93;1.80;;;;;;;10.25;54.36;101472.09;5068063;28;20494;-69
2023/03/15 03:14:34;;;;;;;5.90;2.00;;;;;;;10.14;54.28;101466.88;5067513;28;20043;-68
2023/03/15 03:17:00;;;;;;;2.73;1.77;;;;;;;10.27;53.40;101471.22;5070863;28;20032;-70
2023/03/15 03:19:26;;;;;;;2.50;1.60;;;;;;;10.19;53.70;101462.50;5068644;28;20036;-69
2023/03/15 03:21:55;;;;;;;3.20;1.60;;;;;;;10.38;54.29;101473.03;5066615;28;20031;-70
2023/03/15 03:24:21;;;;;;;2.30;1.90;;;;;;;10.22;53.77;101478.22;5070360;28;20026;-70
2023/03/15 03:26:46;;;;;;;5.43;1.73;;;;;;;10.39;53.04;101480.00;5067157;28;20028;-70
2023/03/15 03:29:15;;;;;;;3.07;1.37;;;;;;;10.45;53.27;101480.00;5068617;28;20032;-69
2023/03/15 03:31:41;;;;;;;6.40;1.60;;;;;;;10.30;54.05;101481.72;5067900;28;20021;-70
2023/03/15 03:34:08;;;;;;;2.30;1.40;;;;;;;10.63;54.05;101492.22;5068390;28;20036;-70
2023/03/15 03:36:34;;;;;;;8.03;1.80;;;;;;;10.83;53.65;101492.22;5068116;28;20115;-70
2023/03/15 03:39:00;;;;;;;6.10;1.80;;;;;;;11.11;52.90;101492.19;5067009;28;20085;-70
2023/03/15 03:41:26;;;;;;;3.97;1.60;;;;;;;9.91;56.55;101508.59;5067871;28;20111;-70
2023/03/15 03:43:51;;;;;;;8.30;1.40;;;;;;;8.27;66.00;101523.94;5068869;28;20444;-70
2023/03/15 03:46:17;;;;;;;3.70;1.10;;;;;;;8.19;64.53;101525.59;5089647;28;20027;-69
2023/03/15 03:48:42;;;;;;;10.03;1.10;;;;;;;7.74;65.55;101526.78;5071706;28;20366;-70
2023/03/15 03:51:08;;;;;;;1.53;0.83;;;;;;;7.08;69.17;101518.94;5071099;28;20028;-70
2023/03/15 03:53:33;;;;;;;3.73;0.90;;;;;;;7.75;66.56;101534.63;5066541;28;20037;-70
2023/03/15 03:55:58;;;;;;;7.20;0.80;;;;;;;7.63;68.01;101524.91;5069726;28;20052;-70
2023/03/15 03:58:24;;;;;;;6.10;0.90;;;;;;;8.35;62.97;101531.81;5068470;28;20020;-71
2023/03/15 04:00:53;;;;;;;4.73;1.17;;;;;;;8.32;64.42;101542.22;5064935;28;20112;-69
2023/03/15 04:03:19;;;;;;;2.37;0.80;;;;;;;8.40;64.44;101544.91;5068468;28;20029;-70
2023/03/15 04:05:45;;;;;;;3.10;0.90;;;;;;;9.42;58.85;101540.56;5067756;28;20024;-70
2023/03/15 04:08:10;;;;;;;3.20;0.70;;;;;;;9.81;56.78;101533.81;5066212;28;20039;-71
2023/03/15 04:10:36;;;;;;;4.07;0.80;;;;;;;9.48;55.88;101536.25;5067257;28;20053;-70
2023/03/15 04:13:02;;;;;;;0.50;0.50;;;;;;;8.90;58.01;101549.75;5069633;28;20155;-71
2023/03/15 04:15:27;;;;;;;2.80;0.87;;;;;;;9.72;56.53;101549.44;5067752;28;20024;-71
2023/03/15 04:17:54;;;;;;;3.73;0.90;;;;;;;9.88;55.66;101547.75;5067984;28;20043;-70
2023/03/15 04:20:25;;;;;;;3.63;0.90;;;;;;;10.21;53.69;101560.06;5066809;28;20281;-70
2023/03/15 04:22:51;;;;;;;7.03;1.00;;;;;;;10.12;53.70;101560.03;5065532;28;20328;-70
2023/03/15 04:25:18;;;;;;;5.27;1.30;;;;;;;10.32;53.30;101565.34;5064144;28;20055;-70
2023/03/15 04:27:44;;;;;;;5.07;1.87;;;;;;;9.91;53.94;101566.91;5068607;28;20039;-70
2023/03/15 04:30:10;;;;;;;6.63;1.93;;;;;;;9.92;54.18;101568.66;5067486;28;20099;-70
2023/03/15 04:32:36;;;;;;;8.23;1.80;;;;;;;10.02;54.64;101557.38;5067389;28;20059;-70
2023/03/15 04:35:03;;;;;;;3.70;1.80;;;;;;;10.29;53.96;101567.91;5068308;28;20028;-70
2023/03/15 04:37:30;;;;;;;7.50;1.80;;;;;;;10.16;54.21;101562.66;5067587;28;20036;-70
2023/03/15 04:39:56;;;;;;;4.83;2.27;;;;;;;10.02;55.22;101573.06;5065680;28;20029;-70
2023/03/15 04:42:22;;;;;;;8.57;3.10;;;;;;;10.15;55.02;101570.47;5068364;28;20027;-69
2023/03/15 04:44:47;;;;;;;8.67;2.73;;;;;;;10.45;54.12;101585.41;5065762;28;20032;-71
2023/03/15 04:47:12;;;;;;;10.47;2.57;;;;;;;10.65;53.87;101589.84;5069392;28;20067;-71
2023/03/15 04:49:38;;;;;;;9.83;2.47;;;;;;;10.63;54.51;101597.69;5068104;28;20021;-71
2023/03/15 04:52:03;;;;;;;9.17;2.13;;;;;;;10.75;53.68;101594.19;5065638;28;20021;-70
2023/03/15 04:54:29;;;;;;;8.97;2.67;;;;;;;10.43;53.64;101596.75;5069155;28;20107;-70
2023/03/15 04:56:54;;;;;;;3.90;1.50;;;;;;;10.52;54.13;101607.22;5066010;28;20025;-69
2023/03/15 04:59:20;;;;;;;4.80;1.20;;;;;;;10.62;53.22;101603.78;5066196;28;20484;-70
2023/03/15 05:01:45;;;;;;;3.90;1.17;;;;;;;10.38;53.74;101598.47;5067348;28;20479;-69
2023/03/15 05:04:12;;;;;;;7.80;1.47;;;;;;;10.69;53.29;101602.91;5068573;28;20028;-69
2023/03/15 05:06:37;;;;;;;4.23;1.30;;;;;;;10.58;54.19;101606.34;5060055;28;20128;-70
2023/03/15 05:09:03;;;;;;;5.80;1.23;;;;;;;10.74;52.98;101607.28;5050954;28;20103;-69
2023/03/15 05:11:28;;;;;;;3.47;1.20;;;;;;;10.84;51.74;101614.28;5067100;28;20025;-69
2023/03/15 05:13:54;;;;;;;3.03;1.53;;;;;;;10.46;53.20;101612.44;5068432;28;20425;-69
2023/03/15 05:16:19;;;;;;;2.87;1.30;;;;;;;10.46;53.32;101617.66;5068755;28;20025;-69
2023/03/15 05:18:45;;;;;;;6.37;1.50;;;;;;;10.55;53.11;101622.94;5065767;28;20048;-69
2023/03/15 05:21:11;;;;;;;12.57;3.53;;;;;;;10.56;52.41;101619.41;5056876;28;20494;-69
2023/03/15 05:23:37;;;;;;;6.03;2.53;;;;;;;10.59;53.52;101627.31;5066037;28;20057;-69
2023/03/15 05:26:02;;;;;;;4.80;1.53;;;;;;;10.68;52.99;101635.13;5067966;28;20032;-69
2023/03/15 05:28:28;;;;;;;3.67;1.53;;;;;;;10.79;52.49;101631.69;5068717;28;20025;-69
2023/03/15 05:30:53;;;;;;;8.80;1.63;;;;;;;10.92;52.98;101630.84;5063300;28;20447;-69
2023/03/15 05:33:20;;;;;;;5.73;1.47;;;;;;;10.69;52.86;101636.03;5066187;28;20036;-70
2023/03/15 05:35:46;;;;;;;6.33;1.70;;;;;;;10.74;52.64;101633.41;5066786;28;20032;-70
2023/03/15 05:38:15;;;;;;;7.70;1.60;;;;;;;10.73;53.14;101631.66;5065875;28;20046;-70
2023/03/15 05:40:43;;;;;;;3.73;1.60;;;;;;;10.91;53.07;101644.78;5066905;28;20024;-69
2023/03/15 05:43:09;;;;;;;7.70;1.93;;;;;;;10.58;53.86;101627.25;5067306;28;20082;-70
2023/03/15 05:45:35;;;;;;;7.03;1.77;;;;;;;10.88;53.53;101646.50;5065324;28;20024;-70
2023/03/15 05:48:01;;;;;;;4.70;2.00;;;;;;;10.67;53.34;101638.66;5065244;28;20124;-69
2023/03/15 05:50:29;;;;;;;2.13;1.93;;;;;;;10.93;51.96;101644.78;5068378;28;20021;-69
2023/03/15 05:52:56;;;;;;;3.47;1.90;;;;;;;10.73;52.52;101648.25;5064897;28;20069;-69
2023/03/15 05:55:21;;;;;;;4.53;1.70;;;;;;;10.68;52.34;101645.59;5066498;28;20413;-71
2023/03/15 05:57:47;;;;;;;5.80;1.87;;;;;;;10.69;52.06;101665.66;5067231;28;20032;-71
2023/03/15 06:00:14;;;;;;;12.53;2.00;;;;;;;11.09;50.44;101666.63;5065999;28;20028;-69
2023/03/15 06:02:43;;;;;;;6.53;2.10;;;;;;;11.16;49.99;101665.75;5068086;28;20021;-69
2023/03/15 06:05:08;;;;;;;14.40;4.07;;;;;;;10.38;51.59;101682.09;5065797;28;20373;-69
2023/03/15 06:07:34;;;;;;;10.53;3.30;;;;;;;10.80;50.59;101688.38;5065675;28;20043;-70
2023/03/15 06:09:59;;;;;;;13.23;4.20;;;;;;;10.77;51.38;101697.06;5066829;28;20021;-69
2023/03/15 06:12:25;;;;;;;10.87;3.80;;;;;;;10.06;51.91;101706.31;5061757;28;20399;-69
2023/03/15 06:14:50;;;;;;;12.33;2.60;;;;;;;10.22;51.79;101718.59;5066310;28;20513;-70
2023/03/15 06:17:15;;;;;;;5.63;1.87;;;;;;;9.88;53.40;101718.38;5068556;28;20024;-70
2023/03/15 06:19:41;;;;;;;6.10;1.97;;;;;;;10.17;51.97;101715.94;5065814;28;20102;-71
2023/03/15 06:22:06;;;;;;;11.77;2.73;;;;;;;10.26;51.98;101724.69;5066316;28;20369;-70
2023/03/15 06:24:32;;;;;;;6.47;1.43;;;;;;;10.21;52.20;101727.28;5069570;28;20033;-70
2023/03/15 06:26:57;;;;;;;8.13;2.03;;;;;;;9.50;53.36;101737.22;5071290;28;20036;-70
2023/03/15 06:29:23;;;;;;;6.20;1.87;;;;;;;9.69;54.38;101740.84;5069918;28;20020;-69
2023/03/15 06:31:49;;;;;;;4.53;2.20;;;;;;;10.10;52.75;101747.25;5069050;28;20036;-69
2023/03/15 06:34:15;;;;;;;13.33;1.90;;;;;;;10.37;51.53;101753.53;5068551;28;20443;-70
2023/03/15 06:36:41;;;;;;;14.67;3.57;;;;;;;9.60;53.65;101754.72;5069529;28;20050;-70
2023/03/15 06:39:10;;;;;;;12.37;3.13;;;;;;;9.39;54.63;101754.50;5071460;28;20419;-69
2023/03/15 06:41:36;;;;;;;6.90;2.57;;;;;;;8.81;56.89;101755.63;5069905;28;20373;-69
2023/03/15 06:44:02;;;;;;;12.50;2.67;;;;;;;9.38;55.75;101760.59;5067943;28;20119;-69
2023/03/15 06:46:27;;;;;;;15.17;4.20;;;;;;;9.64;55.27;101760.81;5067959;28;20044;-69
2023/03/15 06:48:53;;;;;;;10.53;2.30;;;;;;;10.15;53.56;101758.59;5069210;28;20533;-70
2023/03/15 06:51:18;;;;;;;6.13;2.40;;;;;;;9.55;54.66;101765.94;5070310;28;20031;-70
2023/03/15 06:53:43;;;;;;;7.80;1.90;;;;;;;9.88;54.29;101770.59;5070835;28;20450;-69
2023/03/15 06:56:09;;;;;;;12.20;2.60;;;;;;;9.58;55.44;101777.31;5070477;28;20028;-70
2023/03/15 06:58:35;;;;;;;4.93;2.30;;;;;;;9.78;54.94;101784.44;5069722;28;20024;-70
2023/03/15 07:01:00;;;;;;;7.33;2.13;;;;;;;9.76;54.71;101786.16;5069150;28;20495;-69
2023/03/15 07:03:26;;;;;;;8.50;2.63;;;;;;;10.16;53.32;101786.47;5065134;28;20024;-70
2023/03/15 07:05:53;;;;;;;8.73;2.30;;;;;;;9.89;54.13;101788.03;5069119;28;20017;-70
2023/03/15 07:08:20;;;;;;;11.10;2.73;;;;;;;10.19;53.67;101795.22;5069790;28;20036;-71
2023/03/15 07:10:47;;;;;;;9.43;2.63;;;;;;;10.42;52.17;101804.09;5068462;28;20020;-70
2023/03/15 07:13:12;;;;;;;9.00;2.50;;;;;;;10.43;51.73;101800.63;5067873;28;20028;-69
2023/03/15 07:15:38;;;;;;;8.60;2.70;;;;;;;10.29;53.02;101803.97;5067968;28;20036;-70
2023/03/15 07:18:03;;;;;;;9.03;2.43;;;;;;;10.47;52.67;101803.25;5067757;28;20492;-70
2023/03/15 07:20:28;;;;;;;10.53;2.50;;;;;;;10.27;53.39;101805.69;5069450;28;20024;-70
2023/03/15 07:22:54;;;;;;;10.53;3.00;;;;;;;10.22;53.32;101815.28;5064684;28;20044;-70
2023/03/15 07:25:22;;;;;;;9.43;2.90;;;;;;;10.40;53.62;101805.81;5061270;28;20448;-69
2023/03/15 07:27:49;;;;;;;8.73;2.43;;;;;;;10.59;52.95;101818.16;5068558;28;20028;-69
2023/03/15 07:30:16;;;;;;;13.30;3.37;;;;;;;10.78;52.32;101823.47;5069210;28;20048;-70
2023/03/15 07:32:41;;;;;;;10.10;3.07;;;;;;;10.61;53.09;101826.00;5067628;28;20135;-70
2023/03/15 07:35:07;;;;;;;10.27;3.30;;;;;;;10.56;53.07;101828.56;5067213;28;20535;-70
2023/03/15 07:37:33;;;;;;;9.73;3.40;;;;;;;10.35;53.97;101824.94;5069803;28;20054;-70
2023/03/15 07:39:59;;;;;;;9.70;3.63;;;;;;;10.44;54.12;101823.25;5065275;28;20064;-71
2023/03/15 07:42:25;;;;;;;8.97;3.53;;;;;;;10.79;53.44;101820.00;5065429;28;20425;-70
2023/03/15 07:44:50;;;;;;;13.43;2.90;;;;;;;10.90;51.81;101833.97;5067444;28;20115;-69
2023/03/15 07:47:16;;;;;;;11.83;2.97;;;;;;;10.78;51.83;101836.53;5068091;28;20514;-70
2023/03/15 07:49:41;;;;;;;9.50;2.70;;;;;;;10.60;53.02;101838.19;5067006;28;20024;-70
2023/03/15 07:52:07;;;;;;;9.60;2.87;;;;;;;11.18;52.78;101844.56;5068705;28;20017;-70
2023/03/15 07:54:33;;;;;;;7.17;3.23;;;;;;;12.15;51.02;101855.22;5065793;28;20082;-70
2023/03/15 07:56:58;;;;;;;10.90;3.30;;;;;;;14.18;47.39;101843.84;5068594;28;20025;-71
2023/03/15 07:59:24;;;;;;;14.57;3.37;;;;;;;15.27;47.88;101844.41;5068789;28;20028;-71
2023/03/15 08:01:50;;;;;;;7.53;2.63;;;;;;;15.56;42.34;101851.03;5068129;28;20038;-69
2023/03/15 08:04:15;;;;;;;12.57;2.37;;;;;;;16.32;41.64;101848.09;5067862;28;20020;-71
2023/03/15 08:06:41;;;;;;;8.43;2.33;;;;;;;16.37;41.41;101855.91;5059384;28;20327;-71
2023/03/15 08:09:06;;;;;;;6.47;1.87;;;;;;;15.90;40.37;101853.19;5065576;28;20399;-70
2023/03/15 08:11:32;;;;;;;7.87;1.70;;;;;;;17.25;39.35;101852.41;5051192;28;20017;-66
2023/03/15 08:13:57;;;;;;;7.67;1.73;;;;;;;16.35;38.89;101857.69;5062331;28;20089;-65
2023/03/15 08:16:23;;;;;;;9.33;1.73;;;;;;;16.71;40.08;101857.94;5066938;28;20017;-65
2023/03/15 08:18:48;;;;;;;7.97;1.43;;;;;;;17.01;38.13;101869.69;5060458;28;20115;-65
2023/03/15 08:21:13;;;;;;;6.20;1.30;;;;;;;17.24;38.00;101865.66;5067297;28;20032;-65
2023/03/15 08:23:39;;;;;;;6.75;2.13;;;;;;;16.42;37.36;101870.75;5054333;28;20077;-64
2023/03/15 08:26:04;;;;;;;6.57;1.63;;;;;;;16.02;38.38;101870.56;5062660;28;20059;-64
2023/03/15 08:28:30;;;;;;;9.15;1.83;;;;;;;15.04;40.72;101887.72;5066183;28;20543;-64
2023/03/15 08:30:55;;;;;;;9.83;1.40;;;;;;;13.87;41.72;101886.13;5061103;28;20115;-64
2023/03/15 08:33:21;;;;;;;12.23;1.90;;;;;;;14.21;41.47;101892.00;5062406;28;20028;-64
2023/03/15 08:35:52;;;;;;;6.53;1.40;;;;;;;14.07;41.46;101892.13;5054317;28;20028;-64
2023/03/15 08:38:17;;;;;;;7.40;1.73;;;;;;;13.82;40.71;101893.19;5068257;28;20040;-64
2023/03/15 08:40:43;;;;;;;10.73;1.70;;;;;;;12.77;42.29;101898.88;5067590;28;20039;-64
2023/03/15 08:43:08;;;;;;;9.33;1.87;;;;;;;13.60;41.20;101893.34;5065430;28;20066;-64
2023/03/15 08:45:34;;;;;;;9.53;1.33;;;;;;;12.84;43.10;101900.59;5061759;28;20400;-65
2023/03/15 08:47:59;;;;;;;12.53;1.93;;;;;;;13.47;42.21;101894.28;5066849;28;20059;-64
2023/03/15 08:50:26;;;;;;;5.20;1.20;;;;;;;13.22;42.13;101896.97;5067276;28;20028;-64
2023/03/15 08:52:51;;;;;;;13.57;1.50;;;;;;;13.07;42.16;101893.50;5068393;28;20415;-64
2023/03/15 08:55:17;;;;;;;9.30;1.80;;;;;;;12.88;42.75;101894.47;5069470;28;20873;-64
2023/03/15 08:57:43;;;;;;;6.67;1.43;;;;;;;13.32;43.17;101903.91;5065685;28;20033;-64
2023/03/15 09:00:19;;;;;;;11.40;1.63;;;;;;;12.66;44.19;101896.25;5068699;28;20515;-64
2023/03/15 09:02:47;;;;;;;11.70;1.83;;;;;;;12.54;44.26;101899.75;5064961;28;20033;-65
2023/03/15 09:05:14;;;;;;;17.23;2.00;;;;;;;12.23;44.73;101905.03;5067857;28;20561;-64
2023/03/15 09:07:41;;;;;;;6.23;1.70;;;;;;;12.68;44.44;101900.63;5068548;28;20028;-64
2023/03/15 09:10:14;;;;;;;16.93;1.77;;;;;;;12.53;45.56;101890.16;5066646;28;20123;-64
2023/03/15 09:12:45;;;;;;;16.73;1.90;;;;;;;12.72;44.37;101891.88;5065686;28;20031;-64
2023/03/15 09:15:11;;;;;;;7.77;1.13;;;;;;;12.65;44.15;101892.78;5066976;28;20087;-64
2023/03/15 09:17:37;;;;;;;8.40;1.57;;;;;;;13.21;42.99;101887.34;5066377;28;20444;-64
2023/03/15 09:20:10;;;;;;;8.90;1.80;;;;;;;14.14;42.51;101890.31;5067204;28;20028;-64
2023/03/15 09:22:36;;;;;;;8.18;1.75;;;;;;;16.00;39.17;101877.63;5065893;28;20024;-64
2023/03/15 09:25:01;;;;;;;7.87;1.23;;;;;;;17.24;34.45;101873.59;5066679;28;20472;-64
2023/03/15 09:27:29;;;;;;;9.47;1.73;;;;;;;17.86;33.38;101874.84;5069136;28;20100;-64
2023/03/15 09:29:55;;;;;;;6.63;1.60;;;;;;;18.78;33.70;101876.91;5067314;28;20021;-64
2023/03/15 09:32:20;;;;;;;8.07;2.17;;;;;;;18.26;33.15;101880.06;5067275;28;20025;-65
2023/03/15 09:34:46;;;;;;;7.00;1.20;;;;;;;19.41;33.47;101882.19;5068035;28;20059;-65
2023/03/15 09:37:11;;;;;;;8.38;1.38;;;;;;;19.68;30.81;101880.47;5066593;28;20475;-65
2023/03/15 09:39:36;;;;;;;7.55;1.73;;;;;;;19.77;29.46;101889.91;5065384;28;20052;-65
2023/03/15 09:42:07;;;;;;;7.32;1.50;;;;;;;20.87;27.98;101891.56;5065229;28;20024;-64
2023/03/15 09:44:58;;;;;;;6.82;1.38;;;;;;;19.69;28.24;101892.81;5065146;28;20021;-65
2023/03/15 09:47:26;;;;;;;6.40;1.25;;;;;;;19.17;28.39;101899.72;5066553;28;20056;-65
2023/03/15 09:50:00;;;;;;;4.78;1.63;;;;;;;20.08;27.51;101894.25;5064636;28;20035;-65
2023/03/15 09:52:50;;;;;;;6.40;1.40;;;;;;;21.47;27.23;101883.97;5064794;28;20032;-65
2023/03/15 09:55:26;;;;;;;8.98;1.52;;;;;;;19.82;25.31;101894.22;5065595;28;20103;-65
2023/03/15 09:58:03;;;;;;;5.72;1.20;;;;;;;20.22;27.64;101893.81;5070073;28;20336;-65
2023/03/15 10:00:34;;;;;;;6.18;1.20;;;;;;;20.19;26.29;101894.75;5070891;28;20040;-65
2023/03/15 10:03:05;;;;;;;6.38;0.90;;;;;;;20.53;25.79;101895.41;5070614;28;20055;-65
2023/03/15 10:05:46;;;;;;;6.10;1.02;;;;;;;20.23;25.75;101903.50;5069683;28;20103;-65
2023/03/15 10:08:14;;;;;;;6.97;1.13;;;;;;;21.47;25.11;101898.16;5067148;28;20071;-65
2023/03/15 10:10:51;;;;;;;8.77;1.55;;;;;;;19.29;25.49;101909.97;5068342;28;20032;-65
2023/03/15 10:13:26;;;;;;;6.18;1.10;;;;;;;18.89;25.62;101911.06;5061925;28;20052;-65
2023/03/15 10:16:01;;;;;;;4.75;1.15;;;;;;;20.45;24.95;101904.50;5066542;28;20117;-65
2023/03/15 10:18:35;;;;;;;5.57;1.17;;;;;;;19.89;24.92;101909.91;5064777;28;20028;-65
2023/03/15 10:21:11;;;;;;;6.22;1.13;;;;;;;20.23;25.05;101901.69;5068818;28;20036;-65
2023/03/15 10:23:53;;;;;;;9.48;1.92;;;;;;;18.57;23.95;101926.03;5068536;28;20078;-65
2023/03/15 10:26:24;;;;;;;6.45;1.33;;;;;;;18.47;26.00;101925.41;5063011;28;20503;-65
2023/03/15 10:28:51;;;;;;;6.97;1.80;;;;;;;18.98;25.71;101937.31;5061433;28;20079;-65
2023/03/15 10:31:22;;;;;;;6.60;1.30;;;;;;;19.93;24.63;101928.31;5060243;28;20024;-65
2023/03/15 10:33:49;;;;;;;5.68;1.05;;;;;;;20.00;24.86;101931.66;5058575;28;20028;-65
2023/03/15 10:36:18;;;;;;;8.30;1.00;;;;;;;19.93;24.11;101938.09;5066594;28;20024;-65
2023/03/15 10:38:44;;;;;;;7.25;1.55;;;;;;;18.58;24.86;101938.38;5061865;28;20036;-65
2023/03/15 10:41:25;;;;;;;3.20;0.82;;;;;;;19.19;24.37;101940.28;5063253;28;20024;-65
2023/03/15 10:44:03;;;;;;;3.97;1.13;;;;;;;19.41;24.29;101952.00;5054985;28;20043;-68
2023/03/15 10:46:29;;;;;;;6.32;1.10;;;;;;;19.66;24.77;101946.81;5058766;28;20130;-65
2023/03/15 10:49:15;;;;;;;9.57;1.23;;;;;;;19.81;25.48;101949.94;5067166;28;20445;-65
2023/03/15 10:51:46;;;;;;;9.60;1.20;;;;;;;19.89;25.66;101947.06;5062608;28;20496;-67
2023/03/15 10:54:12;;;;;;;3.97;1.10;;;;;;;20.15;25.31;101944.44;5067740;28;20028;-66
2023/03/15 10:56:45;;;;;;;9.27;1.70;;;;;;;20.68;25.97;101950.69;5066397;28;20154;-65
2023/03/15 10:59:17;;;;;;;7.75;1.65;;;;;;;19.98;25.95;101955.59;5058726;28;20032;-65
2023/03/15 11:01:47;;;;;;;7.30;2.53;;;;;;;19.45;26.81;101958.06;5061242;28;20059;-65
2023/03/15 11:04:16;;;;;;;6.00;1.50;;;;;;;19.60;25.27;101956.75;5054903;28;20017;-66
2023/03/15 11:07:03;;;;;;;6.32;1.40;;;;;;;19.62;26.46;101966.41;5066126;28;20016;-66
2023/03/15 11:09:49;;;;;;;9.88;1.73;;;;;;;18.58;26.86;101971.00;5062955;28;20112;-66
2023/03/15 11:12:30;;;;;;;7.28;1.00;;;;;;;18.50;27.12;101978.25;5067247;28;20099;-66
2023/03/15 11:15:14;;;;;;;6.75;1.50;;;;;;;19.32;25.59;101981.44;5076991;28;20111;-66
2023/03/15 11:17:48;;;;;;;5.40;1.55;;;;;;;19.28;25.64;101977.13;5066887;28;20419;-66
2023/03/15 11:20:32;;;;;;;5.43;1.08;;;;;;;18.12;26.09;101978.31;5067901;28;20101;-66
2023/03/15 11:22:59;;;;;;;6.90;1.10;;;;;;;18.11;25.21;101975.69;5060245;28;20059;-66
2023/03/15 11:25:32;;;;;;;6.85;1.48;;;;;;;18.64;25.49;101964.66;5077859;28;20016;-66
2023/03/15 11:27:58;;;;;;;5.20;1.20;;;;;;;18.63;28.04;101968.25;5068570;28;20036;-66